createdAt,value
2023-01-18T00:01:45.304Z,12.13
2023-01-18T00:04:16.824Z,11.02
2023-01-18T00:06:48.652Z,33.08
2023-01-18T00:09:20.250Z,36.35
2023-01-18T00:11:50.613Z,12.93
2023-01-18T00:14:22.107Z,12.50
2023-01-18T00:16:59.335Z,9.97
2023-01-18T00:19:30.591Z,9.95
2023-01-18T00:21:59.128Z,9.00
2023-01-18T00:24:30.327Z,14.07
2023-01-18T00:27:02.119Z,9.52
2023-01-18T00:29:32.447Z,8.50
2023-01-18T00:32:06.234Z,8.98
2023-01-18T00:34:34.829Z,9.90
2023-01-18T00:37:03.413Z,8.77
2023-01-18T00:39:32.136Z,8.45
2023-01-18T00:42:22.434Z,9.00
2023-01-18T00:44:52.494Z,8.93
2023-01-18T00:47:24.185Z,9.70
2023-01-18T00:49:53.363Z,9.85
2023-01-18T00:52:24.316Z,9.32
2023-01-18T00:54:56.702Z,28.77
2023-01-18T00:57:31.217Z,12.15
2023-01-18T01:00:01.242Z,9.60
2023-01-18T01:02:35.217Z,17.10
2023-01-18T01:05:22.013Z,11.10
2023-01-18T01:07:53.449Z,17.10
2023-01-18T01:10:22.360Z,13.70
2023-01-18T01:13:11.936Z,18.77
2023-01-18T01:15:58.488Z,13.25
2023-01-18T01:18:44.336Z,13.25
2023-01-18T01:21:34.108Z,13.60
2023-01-18T01:24:20.578Z,16.25
2023-01-18T01:26:52.285Z,13.55
2023-01-18T01:29:23.217Z,18.50
2023-01-18T01:31:53.051Z,13.52
2023-01-18T01:34:21.940Z,12.98
2023-01-18T01:36:53.132Z,14.52
2023-01-18T01:39:24.178Z,13.80
2023-01-18T01:41:53.043Z,13.15
2023-01-18T01:44:52.378Z,12.95
2023-01-18T01:47:36.063Z,12.13
2023-01-18T01:50:17.716Z,12.77
2023-01-18T01:52:49.251Z,12.65
2023-01-18T01:55:26.090Z,13.02
2023-01-18T01:58:07.912Z,14.13
2023-01-18T02:00:38.134Z,12.95
2023-01-18T02:03:09.748Z,13.90
2023-01-18T02:05:43.553Z,14.32
2023-01-18T02:08:22.888Z,15.07
2023-01-18T02:10:55.760Z,14.57
2023-01-18T02:13:25.883Z,14.52
2023-01-18T02:16:04.539Z,14.05
2023-01-18T02:18:42.568Z,15.10
2023-01-18T02:21:16.629Z,14.07
2023-01-18T02:24:09.024Z,12.85
2023-01-18T02:27:05.550Z,12.50
2023-01-18T02:29:46.903Z,11.93
2023-01-18T02:32:24.990Z,12.27
2023-01-18T02:35:04.231Z,10.88
2023-01-18T02:37:43.965Z,10.75
2023-01-18T02:40:23.873Z,10.52
2023-01-18T02:43:11.207Z,10.55
2023-01-18T02:46:06.758Z,9.60
2023-01-18T02:48:43.221Z,9.80
2023-01-18T02:51:12.230Z,10.00
2023-01-18T02:53:45.804Z,8.85
2023-01-18T02:56:23.570Z,10.20
2023-01-18T02:58:57.292Z,9.15
2023-01-18T03:01:32.075Z,9.15
2023-01-18T03:04:17.296Z,8.93
2023-01-18T03:06:51.689Z,9.25
2023-01-18T03:09:21.650Z,8.70
2023-01-18T03:11:59.512Z,7.80
2023-01-18T03:14:42.022Z,7.32
2023-01-18T03:17:20.383Z,8.82
2023-01-18T03:20:06.286Z,7.40
2023-01-18T03:22:56.616Z,8.60
2023-01-18T03:25:29.683Z,6.75
2023-01-18T03:28:18.122Z,6.57
2023-01-18T03:31:05.477Z,6.63
2023-01-18T03:33:49.054Z,6.70
2023-01-18T03:36:26.752Z,6.90
2023-01-18T03:38:59.450Z,7.75
2023-01-18T03:41:38.398Z,6.50
2023-01-18T03:44:12.651Z,6.93
2023-01-18T03:46:43.956Z,6.65
2023-01-18T03:49:18.479Z,6.95
2023-01-18T03:52:06.942Z,7.25
2023-01-18T03:54:41.038Z,7.28
2023-01-18T03:57:17.860Z,7.18
2023-01-18T03:59:56.500Z,8.45
2023-01-18T04:02:28.032Z,7.07
2023-01-18T04:05:04.151Z,7.70
2023-01-18T04:07:33.616Z,7.53
2023-01-18T04:10:03.364Z,7.40
2023-01-18T04:12:36.587Z,6.97
2023-01-18T04:15:09.319Z,7.85
2023-01-18T04:17:42.363Z,6.60
2023-01-18T04:20:13.286Z,7.00
2023-01-18T04:22:47.571Z,7.10
2023-01-18T04:25:16.129Z,6.35
2023-01-18T04:27:46.637Z,6.63
2023-01-18T04:30:19.926Z,5.97
2023-01-18T04:32:54.049Z,5.88
2023-01-18T04:35:27.340Z,5.47
2023-01-18T04:38:00.567Z,5.20
2023-01-18T04:40:30.459Z,5.45
2023-01-18T04:43:00.798Z,5.00
2023-01-18T04:45:29.971Z,4.82
2023-01-18T04:48:04.358Z,4.80
2023-01-18T04:50:41.377Z,4.38
2023-01-18T04:53:10.014Z,4.70
2023-01-18T04:55:39.834Z,4.88
2023-01-18T04:58:08.778Z,4.50
2023-01-18T05:00:42.127Z,6.05
2023-01-18T05:03:13.966Z,3.95
2023-01-18T05:05:48.978Z,4.20
2023-01-18T05:08:18.885Z,5.43
2023-01-18T05:10:47.776Z,4.68
2023-01-18T05:13:16.170Z,4.00
2023-01-18T05:15:49.606Z,4.22
2023-01-18T05:18:45.503Z,3.90
2023-01-18T05:21:16.541Z,3.78
2023-01-18T05:23:47.043Z,3.13
2023-01-18T05:26:22.199Z,3.50
2023-01-18T05:28:52.622Z,3.80
2023-01-18T05:31:24.011Z,3.47
2023-01-18T05:33:55.703Z,3.67
2023-01-18T05:36:52.861Z,3.08
2023-01-18T05:39:27.888Z,3.90
2023-01-18T05:42:00.026Z,3.63
2023-01-18T05:46:59.625Z,3.00
2023-01-18T05:49:32.053Z,3.00
2023-01-18T05:52:08.485Z,3.22
2023-01-18T05:54:39.765Z,3.10
2023-01-18T05:57:09.669Z,2.78
2023-01-18T05:59:41.003Z,2.78
2023-01-18T06:02:09.977Z,2.58
2023-01-18T06:04:38.638Z,2.65
2023-01-18T06:07:12.191Z,2.20
2023-01-18T06:09:45.057Z,2.63
2023-01-18T06:12:16.981Z,2.33
2023-01-18T06:15:22.999Z,2.60
2023-01-18T06:18:03.555Z,2.10
2023-01-18T06:20:32.366Z,2.67
2023-01-18T06:23:02.747Z,3.53
2023-01-18T06:25:33.352Z,7.72
2023-01-18T06:28:09.516Z,3.78
2023-01-18T06:30:44.078Z,5.35
2023-01-18T06:33:16.610Z,2.85
2023-01-18T06:35:48.184Z,3.65
2023-01-18T06:38:18.932Z,2.78
2023-01-18T06:40:48.248Z,3.88
2023-01-18T06:43:23.506Z,5.65
2023-01-18T06:46:16.951Z,8.82
2023-01-18T06:48:51.944Z,4.03
2023-01-18T06:51:30.149Z,4.25
2023-01-18T06:54:00.701Z,3.88
2023-01-18T06:56:35.932Z,2.95
2023-01-18T06:59:25.088Z,3.15
2023-01-18T07:02:00.168Z,2.88
2023-01-18T07:04:29.737Z,2.70
2023-01-18T07:07:11.145Z,2.58
2023-01-18T07:09:42.847Z,3.22
2023-01-18T07:12:17.895Z,6.35
2023-01-18T07:14:47.772Z,7.05
2023-01-18T07:17:17.240Z,6.60
2023-01-18T07:19:55.747Z,6.65
2023-01-18T07:22:34.133Z,9.18
2023-01-18T07:25:13.722Z,9.60
2023-01-18T07:27:44.402Z,5.38
2023-01-18T07:30:30.556Z,5.32
2023-01-18T07:36:29.335Z,12.10
2023-01-18T07:42:32.632Z,7.68
2023-01-18T07:45:10.106Z,6.85
2023-01-18T07:47:42.484Z,6.35
2023-01-18T07:53:58.740Z,3.35
2023-01-18T07:56:29.452Z,4.78
2023-01-18T08:06:31.873Z,5.75
2023-01-18T08:09:06.028Z,7.85
2023-01-18T08:11:35.267Z,4.03
2023-01-18T08:14:14.391Z,3.90
2023-01-18T08:16:47.808Z,3.55
2023-01-18T08:23:09.823Z,3.08
2023-01-18T08:25:44.911Z,2.67
2023-01-18T08:28:24.184Z,2.90
2023-01-18T08:31:07.787Z,3.13
2023-01-18T08:33:49.079Z,4.10
2023-01-18T08:36:29.343Z,3.50
2023-01-18T08:39:14.920Z,3.65
2023-01-18T08:41:51.304Z,4.35
2023-01-18T08:44:29.658Z,4.55
2023-01-18T08:47:05.533Z,4.30
2023-01-18T08:49:37.851Z,4.43
2023-01-18T08:52:13.847Z,10.27
2023-01-18T08:54:47.385Z,8.30
2023-01-18T08:57:17.448Z,6.40
2023-01-18T08:59:53.596Z,7.35
2023-01-18T09:02:31.466Z,9.45
2023-01-18T09:05:00.499Z,16.45
2023-01-18T09:07:33.689Z,11.95
2023-01-18T09:10:06.410Z,9.07
2023-01-18T09:12:38.412Z,5.72
2023-01-18T09:15:10.582Z,5.45
2023-01-18T09:17:40.064Z,5.90
2023-01-18T09:20:18.563Z,4.65
2023-01-18T09:22:56.620Z,4.38
2023-01-18T09:25:28.355Z,4.82
2023-01-18T09:27:57.988Z,5.03
2023-01-18T09:30:33.655Z,6.68
2023-01-18T09:33:11.718Z,7.80
2023-01-18T09:35:45.369Z,7.85
2023-01-18T09:38:17.028Z,4.75
2023-01-18T09:40:48.307Z,4.80
2023-01-18T09:43:25.576Z,6.70
2023-01-18T09:46:02.878Z,4.63
2023-01-18T09:48:38.901Z,5.72
2023-01-18T09:51:21.904Z,4.90
2023-01-18T09:54:13.725Z,5.85
2023-01-18T09:57:00.100Z,4.68
2023-01-18T09:59:39.689Z,4.75
2023-01-18T10:05:30.160Z,5.28
2023-01-18T10:08:08.848Z,5.63
2023-01-18T10:10:47.290Z,4.93
2023-01-18T10:13:49.537Z,4.47
2023-01-18T10:16:27.705Z,4.72
2023-01-18T10:19:02.261Z,3.83
2023-01-18T10:21:44.895Z,4.40
2023-01-18T10:24:54.086Z,4.05
2023-01-18T10:27:54.926Z,4.95
2023-01-18T10:30:43.849Z,5.70
2023-01-18T10:33:21.995Z,6.40
2023-01-18T10:36:00.224Z,5.95
2023-01-18T10:38:38.848Z,4.85
2023-01-18T10:41:21.855Z,4.88
2023-01-18T10:43:51.729Z,4.50
2023-01-18T10:46:32.416Z,4.43
2023-01-18T10:49:07.615Z,4.28
2023-01-18T10:51:44.116Z,4.47
2023-01-18T10:54:24.630Z,4.95
2023-01-18T10:57:07.279Z,5.50
2023-01-18T10:59:47.452Z,5.18
2023-01-18T11:02:31.486Z,5.88
2023-01-18T11:05:09.585Z,5.25
2023-01-18T11:07:44.004Z,5.25
2023-01-18T11:10:30.012Z,4.68
2023-01-18T11:13:00.425Z,4.78
2023-01-18T11:15:32.348Z,4.75
2023-01-18T11:18:22.395Z,6.95
2023-01-18T11:20:53.048Z,14.25
2023-01-18T11:23:27.107Z,37.85
2023-01-18T11:26:03.191Z,45.90
2023-01-18T11:28:39.898Z,27.55
2023-01-18T11:31:14.655Z,12.95
2023-01-18T11:33:53.615Z,9.15
2023-01-18T11:36:39.163Z,8.27
2023-01-18T11:39:31.103Z,15.93
2023-01-18T11:42:27.277Z,9.85
2023-01-18T11:45:08.790Z,8.35
2023-01-18T11:47:49.162Z,6.43
2023-01-18T11:50:29.945Z,5.25
2023-01-18T11:53:06.859Z,5.20
2023-01-18T11:55:48.414Z,5.22
2023-01-18T11:58:31.081Z,5.00
2023-01-18T12:01:24.814Z,4.43
2023-01-18T12:04:05.734Z,4.25
2023-01-18T12:06:47.679Z,4.25
2023-01-18T12:09:31.535Z,4.80
2023-01-18T12:12:40.098Z,4.22
2023-01-18T12:15:34.777Z,4.68
2023-01-18T12:18:20.490Z,4.38
2023-01-18T12:21:01.152Z,5.28
2023-01-18T12:24:01.817Z,5.83
2023-01-18T12:26:44.141Z,6.25
2023-01-18T12:29:40.628Z,6.55
2023-01-18T12:32:27.506Z,6.00
2023-01-18T12:35:24.118Z,6.13
2023-01-18T12:38:02.307Z,13.60
2023-01-18T12:40:48.193Z,8.68
2023-01-18T12:43:33.818Z,9.85
2023-01-18T12:46:09.308Z,7.30
2023-01-18T12:48:48.761Z,7.15
2023-01-18T12:51:22.508Z,7.40
2023-01-18T12:53:58.988Z,6.47
2023-01-18T12:56:34.966Z,7.18
2023-01-18T12:59:09.984Z,6.78
2023-01-18T13:01:44.348Z,5.78
2023-01-18T13:04:21.543Z,8.25
2023-01-18T13:06:53.554Z,8.05
2023-01-18T13:09:33.475Z,8.27
2023-01-18T13:12:06.180Z,10.60
2023-01-18T13:14:42.916Z,8.38
2023-01-18T13:17:21.982Z,7.97
2023-01-18T13:20:00.602Z,6.80
2023-01-18T13:22:37.442Z,7.53
2023-01-18T13:25:28.853Z,10.48
2023-01-18T13:28:05.798Z,8.63
2023-01-18T13:30:53.729Z,7.35
2023-01-18T13:33:27.425Z,8.32
2023-01-18T13:36:02.147Z,6.80
2023-01-18T13:38:41.520Z,6.68
2023-01-18T13:41:16.226Z,5.72
2023-01-18T13:44:30.385Z,5.75
2023-01-18T13:47:01.280Z,7.03
2023-01-18T13:49:39.597Z,5.68
2023-01-18T13:52:33.935Z,5.60
2023-01-18T13:55:32.014Z,5.43
2023-01-18T13:58:18.935Z,4.85
2023-01-18T14:00:51.177Z,5.43
2023-01-18T14:03:27.123Z,8.98
2023-01-18T14:05:58.897Z,5.68
2023-01-18T14:15:13.676Z,5.55
2023-01-18T14:17:57.938Z,5.70
2023-01-18T14:20:59.824Z,4.70
2023-01-18T14:24:02.251Z,4.65
2023-01-18T14:26:44.959Z,4.15
2023-01-18T14:29:32.363Z,4.03
2023-01-18T14:36:26.133Z,4.05
2023-01-18T14:39:22.807Z,4.80
2023-01-18T14:42:32.859Z,4.32
2023-01-18T14:45:31.108Z,4.60
2023-01-18T14:51:53.742Z,4.80
2023-01-18T14:54:37.602Z,4.40
2023-01-18T14:57:29.300Z,4.25
2023-01-18T15:00:16.763Z,4.35
2023-01-18T15:02:48.632Z,3.40
2023-01-18T15:05:22.487Z,4.93
2023-01-18T15:08:00.629Z,6.00
2023-01-18T15:10:38.252Z,18.50
2023-01-18T15:13:08.424Z,4.35
2023-01-18T15:15:42.624Z,6.07
2023-01-18T15:18:43.540Z,4.93
2023-01-18T15:21:20.138Z,3.60
2023-01-18T15:23:53.107Z,6.00
2023-01-18T15:26:36.883Z,3.00
2023-01-18T15:29:15.703Z,5.53
2023-01-18T15:31:51.139Z,2.95
2023-01-18T15:34:27.631Z,3.45
2023-01-18T15:36:58.249Z,3.67
2023-01-18T15:39:29.022Z,3.20
2023-01-18T15:41:58.695Z,5.10
2023-01-18T15:44:37.153Z,3.03
2023-01-18T15:47:17.012Z,3.65
2023-01-18T15:49:49.273Z,3.78
2023-01-18T15:52:35.365Z,3.97
2023-01-18T15:55:07.767Z,5.60
2023-01-18T15:57:39.618Z,4.03
2023-01-18T16:02:43.948Z,4.55
2023-01-18T16:05:24.271Z,4.22
2023-01-18T16:08:16.579Z,4.50
2023-01-18T16:10:53.125Z,47.65
2023-01-18T16:13:35.448Z,12.50
2023-01-18T16:16:24.368Z,5.68
2023-01-18T16:19:03.279Z,5.60
2023-01-18T16:21:40.695Z,4.78
2023-01-18T16:24:29.192Z,4.72
2023-01-18T16:27:01.944Z,4.82
2023-01-18T16:29:40.454Z,4.95
2023-01-18T16:32:29.467Z,4.60
2023-01-18T16:35:00.244Z,4.40
2023-01-18T16:37:30.934Z,4.85
2023-01-18T16:39:59.817Z,5.07
2023-01-18T16:42:38.054Z,5.15
2023-01-18T16:45:14.997Z,4.90
2023-01-18T16:47:43.996Z,4.93
2023-01-18T16:50:18.755Z,4.47
2023-01-18T16:52:50.316Z,3.92
2023-01-18T16:55:21.527Z,5.15
2023-01-18T16:57:51.942Z,5.28
2023-01-18T17:00:23.862Z,3.93
2023-01-18T17:05:23.386Z,4.47
2023-01-18T17:07:52.830Z,4.40
2023-01-18T17:10:26.619Z,4.00
2023-01-18T17:13:03.780Z,4.43
2023-01-18T17:15:37.224Z,4.30
2023-01-18T17:18:16.187Z,4.38
2023-01-18T17:20:45.943Z,4.28
2023-01-18T17:23:17.547Z,4.47
2023-01-18T17:25:49.163Z,4.72
2023-01-18T17:28:21.182Z,4.97
2023-01-18T17:30:51.591Z,4.38
2023-01-18T17:33:23.952Z,5.67
2023-01-18T17:35:55.831Z,5.18
2023-01-18T17:38:28.837Z,4.95
2023-01-18T17:41:05.207Z,5.47
2023-01-18T17:43:41.212Z,6.72
2023-01-18T17:46:10.978Z,9.50
2023-01-18T17:48:40.558Z,5.78
2023-01-18T17:51:11.139Z,8.27
2023-01-18T17:53:41.493Z,7.32
2023-01-18T17:56:11.973Z,6.47
2023-01-18T17:58:43.163Z,6.90
2023-01-18T18:01:15.081Z,7.03
2023-01-18T18:03:49.166Z,7.10
2023-01-18T18:06:31.454Z,8.60
2023-01-18T18:09:00.901Z,8.10
2023-01-18T18:11:32.615Z,7.45
2023-01-18T18:14:04.735Z,7.22
2023-01-18T18:16:40.866Z,7.85
2023-01-18T18:19:15.044Z,8.70
2023-01-18T18:21:45.497Z,7.78
2023-01-18T18:24:14.234Z,8.18
2023-01-18T18:26:46.172Z,7.68
2023-01-18T18:29:17.399Z,7.93
2023-01-18T18:31:46.201Z,7.80
2023-01-18T18:34:14.880Z,7.95
2023-01-18T18:36:44.050Z,6.68
2023-01-18T18:39:14.454Z,7.57
2023-01-18T18:41:44.119Z,7.65
2023-01-18T18:44:13.570Z,10.18
2023-01-18T18:46:56.378Z,17.40
2023-01-18T18:49:25.019Z,15.00
2023-01-18T18:51:54.188Z,7.97
2023-01-18T18:54:27.521Z,7.47
2023-01-18T18:56:56.489Z,9.15
2023-01-18T18:59:25.375Z,8.57
2023-01-18T19:01:57.022Z,8.18
2023-01-18T19:04:28.501Z,8.55
2023-01-18T19:06:57.532Z,8.25
2023-01-18T19:09:29.695Z,8.90
2023-01-18T19:11:58.468Z,8.88
2023-01-18T19:14:27.175Z,8.60
2023-01-18T19:16:58.377Z,8.57
2023-01-18T19:19:29.099Z,8.95
2023-01-18T19:21:58.520Z,8.93
2023-01-18T19:24:34.570Z,9.63
2023-01-18T19:27:10.953Z,9.75
2023-01-18T19:29:39.926Z,8.45
2023-01-18T19:32:10.830Z,9.23
2023-01-18T19:34:41.186Z,9.57
2023-01-18T19:37:09.803Z,8.27
2023-01-18T19:39:40.306Z,8.25
2023-01-18T19:42:09.570Z,7.80
2023-01-18T19:44:38.575Z,8.43
2023-01-18T19:47:11.330Z,8.27
2023-01-18T19:49:43.168Z,8.45
2023-01-18T19:52:11.875Z,8.82
2023-01-18T19:54:40.824Z,10.02
2023-01-18T19:57:09.865Z,9.10
2023-01-18T19:59:44.844Z,8.98
2023-01-18T20:02:16.802Z,9.43
2023-01-18T20:04:47.730Z,8.48
2023-01-18T20:07:17.801Z,8.80
2023-01-18T20:09:46.925Z,8.43
2023-01-18T20:12:15.827Z,9.23
2023-01-18T20:14:45.430Z,8.45
2023-01-18T20:17:16.392Z,10.00
2023-01-18T20:19:49.583Z,10.10
2023-01-18T20:22:19.218Z,10.15
2023-01-18T20:24:48.474Z,8.40
2023-01-18T20:27:18.733Z,9.13
2023-01-18T20:29:48.049Z,9.95
2023-01-18T20:32:22.963Z,9.73
2023-01-18T20:34:51.917Z,10.77
2023-01-18T20:37:20.799Z,8.48
2023-01-18T20:39:50.501Z,8.95
2023-01-18T20:42:19.817Z,14.13
2023-01-18T20:44:53.749Z,8.32
2023-01-18T20:47:23.999Z,7.18
2023-01-18T20:49:55.475Z,9.23
2023-01-18T20:52:24.458Z,8.30
2023-01-18T20:54:54.975Z,7.50
2023-01-18T20:57:24.278Z,8.25
2023-01-18T20:59:52.979Z,8.77
2023-01-18T21:02:23.570Z,7.68
2023-01-18T21:04:55.147Z,7.60
2023-01-18T21:07:23.701Z,8.45
2023-01-18T21:09:52.386Z,8.48
2023-01-18T21:12:20.984Z,9.18
2023-01-18T21:14:49.579Z,8.98
2023-01-18T21:17:20.174Z,8.57
2023-01-18T21:19:53.748Z,8.95
2023-01-18T21:22:24.262Z,9.57
2023-01-18T21:24:55.541Z,11.73
2023-01-18T21:27:27.583Z,10.73
2023-01-18T21:29:56.077Z,9.75
2023-01-18T21:32:25.579Z,10.10
2023-01-18T21:34:58.974Z,9.98
2023-01-18T21:37:27.978Z,9.88
2023-01-18T21:39:58.541Z,9.25
2023-01-18T21:42:44.724Z,8.88
2023-01-18T21:45:31.285Z,9.15
2023-01-18T21:48:01.192Z,8.45
2023-01-18T21:50:48.929Z,8.50
2023-01-18T21:53:36.156Z,8.43
2023-01-18T21:56:05.099Z,9.90
2023-01-18T21:58:51.547Z,8.13
2023-01-18T22:01:26.527Z,8.85
2023-01-18T22:04:13.896Z,8.80
2023-01-18T22:06:46.157Z,7.50
2023-01-18T22:09:15.193Z,8.00
2023-01-18T22:11:46.786Z,7.53
2023-01-18T22:14:15.585Z,7.05
2023-01-18T22:16:44.751Z,7.05
2023-01-18T22:19:13.701Z,7.40
2023-01-18T22:21:44.230Z,6.18
2023-01-18T22:24:13.800Z,6.82
2023-01-18T22:26:43.313Z,6.75
2023-01-18T22:29:12.875Z,6.43
2023-01-18T22:31:42.862Z,6.45
2023-01-18T22:34:19.498Z,6.30
2023-01-18T22:36:50.751Z,6.28
2023-01-18T22:39:19.419Z,6.97
2023-01-18T22:41:48.344Z,6.85
2023-01-18T22:44:18.177Z,6.47
2023-01-18T22:46:46.888Z,6.15
2023-01-18T22:49:16.960Z,6.10
2023-01-18T22:51:46.213Z,6.25
2023-01-18T22:54:16.315Z,5.95
2023-01-18T22:56:45.401Z,6.32
2023-01-18T22:59:14.592Z,7.05
2023-01-18T23:01:46.078Z,6.35
2023-01-18T23:04:15.029Z,6.50
2023-01-18T23:06:46.535Z,7.13
2023-01-18T23:09:18.594Z,6.75
2023-01-18T23:11:48.338Z,7.20
2023-01-18T23:14:34.238Z,6.63
2023-01-18T23:17:20.671Z,6.90
2023-01-18T23:19:50.907Z,7.30
2023-01-18T23:22:19.470Z,8.07
2023-01-18T23:24:49.538Z,7.60
2023-01-18T23:27:18.447Z,8.30
2023-01-18T23:29:49.873Z,8.27
2023-01-18T23:34:51.441Z,7.43
2023-01-18T23:37:19.989Z,7.40
2023-01-18T23:40:07.566Z,7.93
2023-01-18T23:42:53.770Z,7.72
2023-01-18T23:45:42.526Z,6.63
2023-01-18T23:48:31.793Z,6.57
2023-01-18T23:51:18.307Z,6.57
2023-01-18T23:54:05.617Z,6.75
2023-01-18T23:56:36.189Z,6.28
2023-01-18T23:59:08.220Z,6.78
